Terminal Aerodrome Forecast
Issued by NWS Cleveland, OH

Home | Current Version | Previous Version | Graphics & Text | Print | Product List | Glossary On
Versions: 1 2 3 4 5 6 7 8 9 10 11 12 13 14 15 16 17 18 19 20
000
FTUS41 KCLE 050917 AAA
TAFERI
TAF AMD
KERI 050917Z 0509/0606 23015G25KT 5SM -RASN OVC015
     FM051100 25010G18KT P6SM SCT006 OVC012
     FM051400 26010KT P6SM OVC025
     FM051900 26008KT P6SM OVC035=

USA.gov is the U.S. government's official web portal to all federal, state and local government web resources and services.